sensor_id;sensor_type;location;lat;lon;timestamp;P1;durP1;ratioP1;P2;durP2;ratioP2
12476;SDS011;6303;51.504;6.300;2022-10-17T00:01:44;2.63;;;1.80;;
12476;SDS011;6303;51.504;6.300;2022-10-17T00:04:12;2.13;;;1.75;;
12476;SDS011;6303;51.504;6.300;2022-10-17T00:06:39;2.10;;;1.90;;
12476;SDS011;6303;51.504;6.300;2022-10-17T00:09:06;2.00;;;1.58;;
12476;SDS011;6303;51.504;6.300;2022-10-17T00:11:34;1.63;;;1.50;;
12476;SDS011;6303;51.504;6.300;2022-10-17T00:14:02;1.80;;;1.70;;
12476;SDS011;6303;51.504;6.300;2022-10-17T00:16:29;1.90;;;1.80;;
12476;SDS011;6303;51.504;6.300;2022-10-17T00:18:58;1.67;;;1.58;;
12476;SDS011;6303;51.504;6.300;2022-10-17T00:21:27;1.98;;;1.80;;
12476;SDS011;6303;51.504;6.300;2022-10-17T00:23:54;1.60;;;1.50;;
12476;SDS011;6303;51.504;6.300;2022-10-17T00:26:21;1.83;;;1.73;;
12476;SDS011;6303;51.504;6.300;2022-10-17T00:28:49;2.50;;;1.70;;
12476;SDS011;6303;51.504;6.300;2022-10-17T00:31:18;1.90;;;1.67;;
12476;SDS011;6303;51.504;6.300;2022-10-17T00:33:48;2.20;;;1.73;;
12476;SDS011;6303;51.504;6.300;2022-10-17T00:36:16;2.03;;;1.80;;
12476;SDS011;6303;51.504;6.300;2022-10-17T00:38:46;1.65;;;1.55;;
12476;SDS011;6303;51.504;6.300;2022-10-17T00:41:17;1.75;;;1.65;;
12476;SDS011;6303;51.504;6.300;2022-10-17T00:43:50;1.75;;;1.60;;
12476;SDS011;6303;51.504;6.300;2022-10-17T00:46:20;1.52;;;1.42;;
12476;SDS011;6303;51.504;6.300;2022-10-17T00:48:48;2.33;;;1.65;;
12476;SDS011;6303;51.504;6.300;2022-10-17T00:51:18;1.70;;;1.60;;
12476;SDS011;6303;51.504;6.300;2022-10-17T00:53:52;5.53;;;2.00;;
12476;SDS011;6303;51.504;6.300;2022-10-17T00:56:19;5.30;;;1.70;;
12476;SDS011;6303;51.504;6.300;2022-10-17T00:58:46;1.80;;;1.70;;
12476;SDS011;6303;51.504;6.300;2022-10-17T01:01:14;1.85;;;1.65;;
12476;SDS011;6303;51.504;6.300;2022-10-17T01:03:41;1.70;;;1.60;;
12476;SDS011;6303;51.504;6.300;2022-10-17T01:06:08;1.67;;;1.58;;
12476;SDS011;6303;51.504;6.300;2022-10-17T01:08:36;1.90;;;1.80;;
12476;SDS011;6303;51.504;6.300;2022-10-17T01:11:07;1.60;;;1.50;;
12476;SDS011;6303;51.504;6.300;2022-10-17T01:13:49;2.65;;;1.60;;
12476;SDS011;6303;51.504;6.300;2022-10-17T01:16:23;1.85;;;1.75;;
12476;SDS011;6303;51.504;6.300;2022-10-17T01:19:00;1.92;;;1.80;;
12476;SDS011;6303;51.504;6.300;2022-10-17T01:21:40;1.98;;;1.67;;
12476;SDS011;6303;51.504;6.300;2022-10-17T01:24:28;1.60;;;1.50;;
12476;SDS011;6303;51.504;6.300;2022-10-17T01:27:24;1.90;;;1.70;;
12476;SDS011;6303;51.504;6.300;2022-10-17T01:33:05;1.80;;;1.70;;
12476;SDS011;6303;51.504;6.300;2022-10-17T01:35:39;2.35;;;1.92;;
12476;SDS011;6303;51.504;6.300;2022-10-17T01:38:12;1.98;;;1.80;;
12476;SDS011;6303;51.504;6.300;2022-10-17T01:40:47;1.90;;;1.80;;
12476;SDS011;6303;51.504;6.300;2022-10-17T01:43:19;2.13;;;1.88;;
12476;SDS011;6303;51.504;6.300;2022-10-17T01:45:51;2.08;;;1.98;;
12476;SDS011;6303;51.504;6.300;2022-10-17T01:48:26;1.92;;;1.83;;
12476;SDS011;6303;51.504;6.300;2022-10-17T01:51:02;2.00;;;1.80;;
12476;SDS011;6303;51.504;6.300;2022-10-17T01:53:33;3.38;;;1.98;;
12476;SDS011;6303;51.504;6.300;2022-10-17T01:56:04;2.13;;;2.03;;
12476;SDS011;6303;51.504;6.300;2022-10-17T01:58:35;2.72;;;1.73;;
12476;SDS011;6303;51.504;6.300;2022-10-17T02:01:05;1.77;;;1.67;;
12476;SDS011;6303;51.504;6.300;2022-10-17T02:03:36;1.58;;;1.50;;
12476;SDS011;6303;51.504;6.300;2022-10-17T02:06:05;2.97;;;2.05;;
12476;SDS011;6303;51.504;6.300;2022-10-17T02:08:39;2.13;;;1.90;;
12476;SDS011;6303;51.504;6.300;2022-10-17T02:11:08;2.00;;;1.90;;
12476;SDS011;6303;51.504;6.300;2022-10-17T02:13:40;2.25;;;1.77;;
12476;SDS011;6303;51.504;6.300;2022-10-17T02:16:19;3.03;;;1.88;;
12476;SDS011;6303;51.504;6.300;2022-10-17T02:19:05;2.20;;;1.90;;
12476;SDS011;6303;51.504;6.300;2022-10-17T02:21:44;1.80;;;1.70;;
12476;SDS011;6303;51.504;6.300;2022-10-17T02:24:19;3.25;;;1.80;;
12476;SDS011;6303;51.504;6.300;2022-10-17T02:26:57;1.92;;;1.83;;
12476;SDS011;6303;51.504;6.300;2022-10-17T02:29:32;2.47;;;1.85;;
12476;SDS011;6303;51.504;6.300;2022-10-17T02:32:06;1.90;;;1.80;;
12476;SDS011;6303;51.504;6.300;2022-10-17T02:34:39;2.03;;;1.92;;
12476;SDS011;6303;51.504;6.300;2022-10-17T02:37:09;1.90;;;1.80;;
12476;SDS011;6303;51.504;6.300;2022-10-17T02:39:39;2.22;;;2.13;;
12476;SDS011;6303;51.504;6.300;2022-10-17T02:42:10;1.98;;;1.88;;
12476;SDS011;6303;51.504;6.300;2022-10-17T02:44:39;2.33;;;2.13;;
12476;SDS011;6303;51.504;6.300;2022-10-17T02:47:14;2.30;;;2.10;;
12476;SDS011;6303;51.504;6.300;2022-10-17T02:49:50;2.25;;;2.05;;
12476;SDS011;6303;51.504;6.300;2022-10-17T02:52:21;2.17;;;2.08;;
12476;SDS011;6303;51.504;6.300;2022-10-17T02:54:54;2.30;;;2.10;;
12476;SDS011;6303;51.504;6.300;2022-10-17T02:57:26;2.20;;;2.00;;
12476;SDS011;6303;51.504;6.300;2022-10-17T02:59:57;1.98;;;1.88;;
12476;SDS011;6303;51.504;6.300;2022-10-17T03:02:27;2.10;;;2.00;;
12476;SDS011;6303;51.504;6.300;2022-10-17T03:05:06;2.10;;;1.98;;
12476;SDS011;6303;51.504;6.300;2022-10-17T03:07:36;1.95;;;1.85;;
12476;SDS011;6303;51.504;6.300;2022-10-17T03:10:03;2.03;;;1.92;;
12476;SDS011;6303;51.504;6.300;2022-10-17T03:12:31;2.10;;;1.90;;
12476;SDS011;6303;51.504;6.300;2022-10-17T03:14:58;2.33;;;2.10;;
12476;SDS011;6303;51.504;6.300;2022-10-17T03:17:26;2.05;;;1.95;;
12476;SDS011;6303;51.504;6.300;2022-10-17T03:19:53;2.25;;;2.15;;
12476;SDS011;6303;51.504;6.300;2022-10-17T03:22:21;2.30;;;2.10;;
12476;SDS011;6303;51.504;6.300;2022-10-17T03:24:48;2.20;;;2.10;;
12476;SDS011;6303;51.504;6.300;2022-10-17T03:27:16;2.28;;;2.03;;
12476;SDS011;6303;51.504;6.300;2022-10-17T03:29:44;2.78;;;1.92;;
12476;SDS011;6303;51.504;6.300;2022-10-17T03:32:13;2.30;;;2.10;;
12476;SDS011;6303;51.504;6.300;2022-10-17T03:34:40;2.50;;;2.40;;
12476;SDS011;6303;51.504;6.300;2022-10-17T03:37:08;2.08;;;1.98;;
12476;SDS011;6303;51.504;6.300;2022-10-17T03:39:39;2.35;;;2.20;;
12476;SDS011;6303;51.504;6.300;2022-10-17T03:42:06;2.60;;;2.35;;
12476;SDS011;6303;51.504;6.300;2022-10-17T03:44:33;2.20;;;2.10;;
12476;SDS011;6303;51.504;6.300;2022-10-17T03:47:00;2.58;;;2.38;;
12476;SDS011;6303;51.504;6.300;2022-10-17T03:49:28;2.67;;;2.40;;
12476;SDS011;6303;51.504;6.300;2022-10-17T03:51:55;2.28;;;2.15;;
12476;SDS011;6303;51.504;6.300;2022-10-17T03:54:23;3.22;;;2.17;;
12476;SDS011;6303;51.504;6.300;2022-10-17T03:56:52;2.35;;;2.15;;
12476;SDS011;6303;51.504;6.300;2022-10-17T03:59:19;2.20;;;2.10;;
12476;SDS011;6303;51.504;6.300;2022-10-17T04:01:58;2.72;;;2.40;;
12476;SDS011;6303;51.504;6.300;2022-10-17T04:04:26;2.72;;;2.33;;
12476;SDS011;6303;51.504;6.300;2022-10-17T04:06:53;2.22;;;2.13;;
12476;SDS011;6303;51.504;6.300;2022-10-17T04:09:20;3.25;;;2.40;;
12476;SDS011;6303;51.504;6.300;2022-10-17T04:12:01;2.47;;;2.28;;
12476;SDS011;6303;51.504;6.300;2022-10-17T04:14:29;2.20;;;2.10;;
12476;SDS011;6303;51.504;6.300;2022-10-17T04:16:57;2.45;;;2.35;;
12476;SDS011;6303;51.504;6.300;2022-10-17T04:19:25;3.22;;;2.50;;
12476;SDS011;6303;51.504;6.300;2022-10-17T04:21:53;2.40;;;2.20;;
12476;SDS011;6303;51.504;6.300;2022-10-17T04:24:20;2.10;;;2.00;;
12476;SDS011;6303;51.504;6.300;2022-10-17T04:27:09;2.20;;;1.92;;
12476;SDS011;6303;51.504;6.300;2022-10-17T04:29:40;2.53;;;2.33;;
12476;SDS011;6303;51.504;6.300;2022-10-17T04:32:15;2.50;;;2.30;;
12476;SDS011;6303;51.504;6.300;2022-10-17T04:34:47;2.60;;;2.40;;
12476;SDS011;6303;51.504;6.300;2022-10-17T04:37:16;2.30;;;2.20;;
12476;SDS011;6303;51.504;6.300;2022-10-17T04:39:45;2.20;;;2.10;;
12476;SDS011;6303;51.504;6.300;2022-10-17T04:42:13;2.70;;;2.50;;
12476;SDS011;6303;51.504;6.300;2022-10-17T04:44:41;2.53;;;2.33;;
12476;SDS011;6303;51.504;6.300;2022-10-17T04:47:09;2.63;;;2.42;;
12476;SDS011;6303;51.504;6.300;2022-10-17T04:49:37;2.47;;;2.28;;
12476;SDS011;6303;51.504;6.300;2022-10-17T04:52:08;2.45;;;2.25;;
12476;SDS011;6303;51.504;6.300;2022-10-17T04:54:41;2.65;;;2.45;;
12476;SDS011;6303;51.504;6.300;2022-10-17T04:57:09;2.50;;;2.30;;
12476;SDS011;6303;51.504;6.300;2022-10-17T04:59:39;2.58;;;2.38;;
12476;SDS011;6303;51.504;6.300;2022-10-17T05:02:29;2.60;;;2.40;;
12476;SDS011;6303;51.504;6.300;2022-10-17T05:04:59;2.75;;;2.55;;
12476;SDS011;6303;51.504;6.300;2022-10-17T05:07:26;3.25;;;2.42;;
12476;SDS011;6303;51.504;6.300;2022-10-17T05:10:01;3.15;;;2.85;;
12476;SDS011;6303;51.504;6.300;2022-10-17T05:12:30;6.45;;;2.83;;
12476;SDS011;6303;51.504;6.300;2022-10-17T05:14:58;4.80;;;2.60;;
12476;SDS011;6303;51.504;6.300;2022-10-17T05:17:27;5.43;;;2.60;;
12476;SDS011;6303;51.504;6.300;2022-10-17T05:19:54;7.60;;;2.80;;
12476;SDS011;6303;51.504;6.300;2022-10-17T05:22:21;3.63;;;2.58;;
12476;SDS011;6303;51.504;6.300;2022-10-17T05:24:48;4.95;;;2.85;;
12476;SDS011;6303;51.504;6.300;2022-10-17T05:27:15;5.72;;;2.53;;
12476;SDS011;6303;51.504;6.300;2022-10-17T05:29:43;3.95;;;2.85;;
12476;SDS011;6303;51.504;6.300;2022-10-17T05:32:23;5.07;;;2.85;;
12476;SDS011;6303;51.504;6.300;2022-10-17T05:34:50;4.93;;;2.97;;
12476;SDS011;6303;51.504;6.300;2022-10-17T05:37:19;4.97;;;2.60;;
12476;SDS011;6303;51.504;6.300;2022-10-17T05:39:49;5.60;;;2.97;;
12476;SDS011;6303;51.504;6.300;2022-10-17T05:42:17;2.58;;;2.38;;
12476;SDS011;6303;51.504;6.300;2022-10-17T05:44:45;3.08;;;2.58;;
12476;SDS011;6303;51.504;6.300;2022-10-17T05:47:14;4.25;;;2.50;;
12476;SDS011;6303;51.504;6.300;2022-10-17T05:49:44;2.88;;;2.67;;
12476;SDS011;6303;51.504;6.300;2022-10-17T05:52:11;6.47;;;2.90;;
12476;SDS011;6303;51.504;6.300;2022-10-17T05:55:04;4.32;;;2.80;;
12476;SDS011;6303;51.504;6.300;2022-10-17T05:57:32;6.10;;;2.60;;
12476;SDS011;6303;51.504;6.300;2022-10-17T06:00:01;3.97;;;2.40;;
12476;SDS011;6303;51.504;6.300;2022-10-17T06:02:39;4.93;;;2.53;;
12476;SDS011;6303;51.504;6.300;2022-10-17T06:05:09;4.30;;;3.05;;
12476;SDS011;6303;51.504;6.300;2022-10-17T06:07:36;3.40;;;2.53;;
12476;SDS011;6303;51.504;6.300;2022-10-17T06:10:04;6.15;;;2.47;;
12476;SDS011;6303;51.504;6.300;2022-10-17T06:12:32;2.50;;;2.30;;
12476;SDS011;6303;51.504;6.300;2022-10-17T06:14:59;3.72;;;2.67;;
12476;SDS011;6303;51.504;6.300;2022-10-17T06:17:27;3.30;;;2.47;;
12476;SDS011;6303;51.504;6.300;2022-10-17T06:19:54;3.15;;;2.70;;
12476;SDS011;6303;51.504;6.300;2022-10-17T06:22:24;9.55;;;3.20;;
12476;SDS011;6303;51.504;6.300;2022-10-17T06:24:51;4.47;;;2.63;;
12476;SDS011;6303;51.504;6.300;2022-10-17T06:27:18;4.82;;;2.53;;
12476;SDS011;6303;51.504;6.300;2022-10-17T06:29:46;3.38;;;2.80;;
12476;SDS011;6303;51.504;6.300;2022-10-17T06:32:16;4.22;;;2.65;;
12476;SDS011;6303;51.504;6.300;2022-10-17T06:34:45;2.72;;;2.47;;
12476;SDS011;6303;51.504;6.300;2022-10-17T06:37:13;3.40;;;2.45;;
12476;SDS011;6303;51.504;6.300;2022-10-17T06:39:42;4.80;;;2.53;;
12476;SDS011;6303;51.504;6.300;2022-10-17T06:42:15;3.08;;;2.75;;
12476;SDS011;6303;51.504;6.300;2022-10-17T06:44:52;4.38;;;2.60;;
12476;SDS011;6303;51.504;6.300;2022-10-17T06:47:39;3.33;;;2.63;;
12476;SDS011;6303;51.504;6.300;2022-10-17T06:50:27;3.22;;;2.83;;
12476;SDS011;6303;51.504;6.300;2022-10-17T06:53:09;3.80;;;2.50;;
12476;SDS011;6303;51.504;6.300;2022-10-17T06:55:52;2.80;;;2.50;;
12476;SDS011;6303;51.504;6.300;2022-10-17T06:58:34;3.50;;;2.67;;
12476;SDS011;6303;51.504;6.300;2022-10-17T07:01:20;3.28;;;2.50;;
12476;SDS011;6303;51.504;6.300;2022-10-17T07:03:50;2.90;;;2.60;;
12476;SDS011;6303;51.504;6.300;2022-10-17T07:06:17;4.05;;;2.85;;
12476;SDS011;6303;51.504;6.300;2022-10-17T07:08:45;3.00;;;2.75;;
12476;SDS011;6303;51.504;6.300;2022-10-17T07:11:18;3.22;;;2.80;;
12476;SDS011;6303;51.504;6.300;2022-10-17T07:13:48;4.85;;;3.03;;
12476;SDS011;6303;51.504;6.300;2022-10-17T07:16:15;2.90;;;2.42;;
12476;SDS011;6303;51.504;6.300;2022-10-17T07:18:47;3.10;;;2.70;;
12476;SDS011;6303;51.504;6.300;2022-10-17T07:21:16;2.75;;;2.55;;
12476;SDS011;6303;51.504;6.300;2022-10-17T07:23:43;2.70;;;2.50;;
12476;SDS011;6303;51.504;6.300;2022-10-17T07:26:11;2.92;;;2.63;;
12476;SDS011;6303;51.504;6.300;2022-10-17T07:28:43;2.88;;;2.58;;
12476;SDS011;6303;51.504;6.300;2022-10-17T07:31:40;2.95;;;2.75;;
12476;SDS011;6303;51.504;6.300;2022-10-17T07:34:09;2.70;;;2.50;;
12476;SDS011;6303;51.504;6.300;2022-10-17T07:36:37;2.90;;;2.63;;
12476;SDS011;6303;51.504;6.300;2022-10-17T07:39:05;2.80;;;2.60;;
12476;SDS011;6303;51.504;6.300;2022-10-17T07:41:34;3.08;;;2.88;;
12476;SDS011;6303;51.504;6.300;2022-10-17T07:44:04;2.92;;;2.60;;
12476;SDS011;6303;51.504;6.300;2022-10-17T07:46:40;3.00;;;2.70;;
12476;SDS011;6303;51.504;6.300;2022-10-17T07:49:07;8.23;;;3.33;;
12476;SDS011;6303;51.504;6.300;2022-10-17T07:54:09;6.85;;;2.97;;
12476;SDS011;6303;51.504;6.300;2022-10-17T07:56:36;6.05;;;2.80;;
12476;SDS011;6303;51.504;6.300;2022-10-17T07:59:04;4.68;;;2.72;;
12476;SDS011;6303;51.504;6.300;2022-10-17T08:01:31;2.75;;;2.55;;
12476;SDS011;6303;51.504;6.300;2022-10-17T08:03:58;4.22;;;3.05;;
12476;SDS011;6303;51.504;6.300;2022-10-17T08:06:25;5.07;;;2.85;;
12476;SDS011;6303;51.504;6.300;2022-10-17T08:08:52;4.45;;;2.60;;
12476;SDS011;6303;51.504;6.300;2022-10-17T08:11:22;4.88;;;3.10;;
12476;SDS011;6303;51.504;6.300;2022-10-17T08:13:49;2.90;;;2.60;;
12476;SDS011;6303;51.504;6.300;2022-10-17T08:16:17;3.00;;;2.60;;
12476;SDS011;6303;51.504;6.300;2022-10-17T08:18:44;7.40;;;3.17;;
12476;SDS011;6303;51.504;6.300;2022-10-17T08:21:12;5.15;;;2.83;;
12476;SDS011;6303;51.504;6.300;2022-10-17T08:23:39;9.48;;;3.35;;
12476;SDS011;6303;51.504;6.300;2022-10-17T08:26:06;11.07;;;3.83;;
12476;SDS011;6303;51.504;6.300;2022-10-17T08:28:35;10.80;;;3.63;;
12476;SDS011;6303;51.504;6.300;2022-10-17T08:31:03;10.95;;;2.92;;
12476;SDS011;6303;51.504;6.300;2022-10-17T08:33:32;7.82;;;3.22;;
12476;SDS011;6303;51.504;6.300;2022-10-17T08:35:59;6.00;;;3.13;;
12476;SDS011;6303;51.504;6.300;2022-10-17T08:38:27;5.50;;;3.20;;
12476;SDS011;6303;51.504;6.300;2022-10-17T08:40:55;7.40;;;3.35;;
12476;SDS011;6303;51.504;6.300;2022-10-17T08:46:15;6.18;;;3.50;;
12476;SDS011;6303;51.504;6.300;2022-10-17T08:48:45;8.50;;;3.45;;
12476;SDS011;6303;51.504;6.300;2022-10-17T08:51:16;6.18;;;3.45;;
12476;SDS011;6303;51.504;6.300;2022-10-17T08:53:48;6.13;;;3.42;;
12476;SDS011;6303;51.504;6.300;2022-10-17T08:56:18;5.40;;;3.30;;
12476;SDS011;6303;51.504;6.300;2022-10-17T08:58:46;4.43;;;3.20;;
12476;SDS011;6303;51.504;6.300;2022-10-17T09:01:21;3.60;;;3.30;;
12476;SDS011;6303;51.504;6.300;2022-10-17T09:04:05;5.53;;;3.72;;
12476;SDS011;6303;51.504;6.300;2022-10-17T09:06:54;4.10;;;3.70;;
12476;SDS011;6303;51.504;6.300;2022-10-17T09:09:30;4.82;;;3.92;;
12476;SDS011;6303;51.504;6.300;2022-10-17T09:12:04;10.95;;;4.20;;
12476;SDS011;6303;51.504;6.300;2022-10-17T09:17:34;7.90;;;3.95;;
12476;SDS011;6303;51.504;6.300;2022-10-17T09:20:13;8.13;;;4.13;;
12476;SDS011;6303;51.504;6.300;2022-10-17T09:22:45;11.77;;;4.18;;
12476;SDS011;6303;51.504;6.300;2022-10-17T09:25:15;7.65;;;4.38;;
12476;SDS011;6303;51.504;6.300;2022-10-17T09:27:45;9.07;;;3.80;;
12476;SDS011;6303;51.504;6.300;2022-10-17T09:30:30;7.80;;;4.13;;
12476;SDS011;6303;51.504;6.300;2022-10-17T09:33:07;7.95;;;3.85;;
12476;SDS011;6303;51.504;6.300;2022-10-17T09:35:37;6.55;;;3.95;;
12476;SDS011;6303;51.504;6.300;2022-10-17T09:38:07;4.70;;;3.60;;
12476;SDS011;6303;51.504;6.300;2022-10-17T09:40:40;7.03;;;3.92;;
12476;SDS011;6303;51.504;6.300;2022-10-17T09:43:07;6.93;;;3.58;;
12476;SDS011;6303;51.504;6.300;2022-10-17T09:45:39;4.82;;;3.53;;
12476;SDS011;6303;51.504;6.300;2022-10-17T09:48:13;6.88;;;4.65;;
12476;SDS011;6303;51.504;6.300;2022-10-17T09:50:48;6.97;;;3.83;;
12476;SDS011;6303;51.504;6.300;2022-10-17T09:53:17;5.30;;;4.10;;
12476;SDS011;6303;51.504;6.300;2022-10-17T09:55:50;5.45;;;3.95;;
12476;SDS011;6303;51.504;6.300;2022-10-17T09:58:20;5.75;;;3.88;;
12476;SDS011;6303;51.504;6.300;2022-10-17T10:00:48;4.97;;;3.70;;
12476;SDS011;6303;51.504;6.300;2022-10-17T10:03:16;4.57;;;3.45;;
12476;SDS011;6303;51.504;6.300;2022-10-17T10:05:58;4.63;;;4.00;;
12476;SDS011;6303;51.504;6.300;2022-10-17T10:08:28;6.00;;;3.70;;
12476;SDS011;6303;51.504;6.300;2022-10-17T10:10:57;5.75;;;3.38;;
12476;SDS011;6303;51.504;6.300;2022-10-17T10:13:27;4.40;;;3.58;;
12476;SDS011;6303;51.504;6.300;2022-10-17T10:16:11;6.13;;;3.58;;
12476;SDS011;6303;51.504;6.300;2022-10-17T10:18:42;5.40;;;3.88;;
12476;SDS011;6303;51.504;6.300;2022-10-17T10:21:11;5.85;;;3.47;;
12476;SDS011;6303;51.504;6.300;2022-10-17T10:23:40;7.25;;;3.72;;
12476;SDS011;6303;51.504;6.300;2022-10-17T10:26:16;3.50;;;3.20;;
12476;SDS011;6303;51.504;6.300;2022-10-17T10:28:57;4.07;;;3.60;;
12476;SDS011;6303;51.504;6.300;2022-10-17T10:31:27;4.68;;;3.42;;
12476;SDS011;6303;51.504;6.300;2022-10-17T10:33:56;3.50;;;3.08;;
12476;SDS011;6303;51.504;6.300;2022-10-17T10:39:16;3.42;;;3.13;;
12476;SDS011;6303;51.504;6.300;2022-10-17T10:41:54;4.95;;;3.25;;
12476;SDS011;6303;51.504;6.300;2022-10-17T10:44:23;4.57;;;3.30;;
12476;SDS011;6303;51.504;6.300;2022-10-17T10:49:41;3.90;;;3.50;;
12476;SDS011;6303;51.504;6.300;2022-10-17T10:52:14;4.43;;;3.40;;
12476;SDS011;6303;51.504;6.300;2022-10-17T10:55:01;5.60;;;3.33;;
12476;SDS011;6303;51.504;6.300;2022-10-17T10:57:32;4.03;;;3.47;;
12476;SDS011;6303;51.504;6.300;2022-10-17T11:00:03;3.58;;;3.28;;
12476;SDS011;6303;51.504;6.300;2022-10-17T11:02:41;4.82;;;3.40;;
12476;SDS011;6303;51.504;6.300;2022-10-17T11:05:19;4.45;;;3.33;;
12476;SDS011;6303;51.504;6.300;2022-10-17T11:07:52;3.88;;;3.40;;
12476;SDS011;6303;51.504;6.300;2022-10-17T11:10:29;5.20;;;3.13;;
12476;SDS011;6303;51.504;6.300;2022-10-17T11:13:02;3.95;;;3.13;;
12476;SDS011;6303;51.504;6.300;2022-10-17T11:15:35;5.63;;;3.55;;
12476;SDS011;6303;51.504;6.300;2022-10-17T11:18:07;5.30;;;3.53;;
12476;SDS011;6303;51.504;6.300;2022-10-17T11:20:41;3.38;;;3.00;;
12476;SDS011;6303;51.504;6.300;2022-10-17T11:23:19;3.47;;;3.15;;
12476;SDS011;6303;51.504;6.300;2022-10-17T11:25:53;4.03;;;3.40;;
12476;SDS011;6303;51.504;6.300;2022-10-17T11:28:22;3.55;;;2.90;;
12476;SDS011;6303;51.504;6.300;2022-10-17T11:30:51;4.22;;;3.20;;
12476;SDS011;6303;51.504;6.300;2022-10-17T11:33:24;4.38;;;3.20;;
12476;SDS011;6303;51.504;6.300;2022-10-17T11:35:55;4.80;;;3.38;;
12476;SDS011;6303;51.504;6.300;2022-10-17T11:38:31;3.50;;;3.15;;
12476;SDS011;6303;51.504;6.300;2022-10-17T11:41:06;3.70;;;3.40;;
12476;SDS011;6303;51.504;6.300;2022-10-17T11:43:37;4.35;;;3.28;;
12476;SDS011;6303;51.504;6.300;2022-10-17T11:46:10;4.65;;;3.20;;
12476;SDS011;6303;51.504;6.300;2022-10-17T11:48:42;3.53;;;3.15;;
12476;SDS011;6303;51.504;6.300;2022-10-17T11:51:13;4.47;;;3.33;;
12476;SDS011;6303;51.504;6.300;2022-10-17T11:53:43;3.58;;;3.28;;
12476;SDS011;6303;51.504;6.300;2022-10-17T11:56:16;4.60;;;3.20;;
12476;SDS011;6303;51.504;6.300;2022-10-17T11:58:49;5.72;;;3.42;;
12476;SDS011;6303;51.504;6.300;2022-10-17T12:01:29;3.40;;;2.95;;
12476;SDS011;6303;51.504;6.300;2022-10-17T12:04:02;5.43;;;3.20;;
12476;SDS011;6303;51.504;6.300;2022-10-17T12:06:41;6.55;;;3.60;;
12476;SDS011;6303;51.504;6.300;2022-10-17T12:09:24;8.57;;;3.42;;
12476;SDS011;6303;51.504;6.300;2022-10-17T12:11:58;5.13;;;3.20;;
12476;SDS011;6303;51.504;6.300;2022-10-17T12:14:35;3.80;;;3.35;;
12476;SDS011;6303;51.504;6.300;2022-10-17T12:17:04;6.35;;;3.33;;
12476;SDS011;6303;51.504;6.300;2022-10-17T12:19:46;4.47;;;3.13;;
12476;SDS011;6303;51.504;6.300;2022-10-17T12:22:17;3.20;;;2.90;;
12476;SDS011;6303;51.504;6.300;2022-10-17T12:27:43;3.95;;;2.90;;
12476;SDS011;6303;51.504;6.300;2022-10-17T12:30:16;4.22;;;3.38;;
12476;SDS011;6303;51.504;6.300;2022-10-17T12:32:56;5.88;;;3.58;;
12476;SDS011;6303;51.504;6.300;2022-10-17T12:35:26;6.57;;;3.72;;
12476;SDS011;6303;51.504;6.300;2022-10-17T12:37:59;5.85;;;4.00;;
12476;SDS011;6303;51.504;6.300;2022-10-17T12:43:35;5.45;;;3.67;;
12476;SDS011;6303;51.504;6.300;2022-10-17T12:49:20;8.25;;;4.00;;
12476;SDS011;6303;51.504;6.300;2022-10-17T12:52:09;5.40;;;3.70;;
12476;SDS011;6303;51.504;6.300;2022-10-17T12:54:47;6.53;;;4.35;;
12476;SDS011;6303;51.504;6.300;2022-10-17T12:57:34;5.95;;;4.10;;
12476;SDS011;6303;51.504;6.300;2022-10-17T13:00:12;4.50;;;3.78;;
12476;SDS011;6303;51.504;6.300;2022-10-17T13:02:43;4.40;;;3.53;;
12476;SDS011;6303;51.504;6.300;2022-10-17T13:05:16;4.60;;;3.80;;
12476;SDS011;6303;51.504;6.300;2022-10-17T13:07:49;8.07;;;4.15;;
12476;SDS011;6303;51.504;6.300;2022-10-17T13:10:21;4.55;;;3.92;;
12476;SDS011;6303;51.504;6.300;2022-10-17T13:12:52;5.90;;;3.80;;
12476;SDS011;6303;51.504;6.300;2022-10-17T13:15:30;5.80;;;3.53;;
12476;SDS011;6303;51.504;6.300;2022-10-17T13:17:59;4.68;;;3.85;;
12476;SDS011;6303;51.504;6.300;2022-10-17T13:20:28;5.40;;;3.90;;
12476;SDS011;6303;51.504;6.300;2022-10-17T13:22:56;4.97;;;4.03;;
12476;SDS011;6303;51.504;6.300;2022-10-17T13:25:24;4.55;;;3.70;;
12476;SDS011;6303;51.504;6.300;2022-10-17T13:28:06;4.55;;;3.92;;
12476;SDS011;6303;51.504;6.300;2022-10-17T13:30:38;7.40;;;3.85;;
12476;SDS011;6303;51.504;6.300;2022-10-17T13:35:58;7.00;;;3.50;;
12476;SDS011;6303;51.504;6.300;2022-10-17T13:38:28;6.07;;;3.53;;
12476;SDS011;6303;51.504;6.300;2022-10-17T13:40:57;8.43;;;3.50;;
12476;SDS011;6303;51.504;6.300;2022-10-17T13:43:27;4.35;;;3.47;;
12476;SDS011;6303;51.504;6.300;2022-10-17T13:45:56;7.38;;;4.32;;
12476;SDS011;6303;51.504;6.300;2022-10-17T13:48:29;4.85;;;3.55;;
12476;SDS011;6303;51.504;6.300;2022-10-17T13:50:59;6.60;;;3.75;;
12476;SDS011;6303;51.504;6.300;2022-10-17T13:53:29;3.60;;;3.30;;
12476;SDS011;6303;51.504;6.300;2022-10-17T13:55:58;3.88;;;3.13;;
12476;SDS011;6303;51.504;6.300;2022-10-17T13:58:30;5.55;;;3.53;;
12476;SDS011;6303;51.504;6.300;2022-10-17T14:01:04;5.88;;;4.18;;
12476;SDS011;6303;51.504;6.300;2022-10-17T14:03:32;5.95;;;3.83;;
12476;SDS011;6303;51.504;6.300;2022-10-17T14:06:01;7.13;;;3.90;;
12476;SDS011;6303;51.504;6.300;2022-10-17T14:08:35;4.75;;;3.42;;
12476;SDS011;6303;51.504;6.300;2022-10-17T14:11:12;5.43;;;4.10;;
12476;SDS011;6303;51.504;6.300;2022-10-17T14:13:42;6.50;;;4.13;;
12476;SDS011;6303;51.504;6.300;2022-10-17T14:16:14;4.60;;;3.95;;
12476;SDS011;6303;51.504;6.300;2022-10-17T14:18:44;5.40;;;3.67;;
12476;SDS011;6303;51.504;6.300;2022-10-17T14:21:17;5.63;;;3.70;;
12476;SDS011;6303;51.504;6.300;2022-10-17T14:23:46;6.22;;;4.07;;
12476;SDS011;6303;51.504;6.300;2022-10-17T14:26:14;4.72;;;4.20;;
12476;SDS011;6303;51.504;6.300;2022-10-17T14:28:45;6.03;;;4.03;;
12476;SDS011;6303;51.504;6.300;2022-10-17T14:31:21;6.57;;;4.15;;
12476;SDS011;6303;51.504;6.300;2022-10-17T14:33:51;7.57;;;4.25;;
12476;SDS011;6303;51.504;6.300;2022-10-17T14:36:19;5.07;;;4.15;;
12476;SDS011;6303;51.504;6.300;2022-10-17T14:38:56;4.55;;;4.07;;
12476;SDS011;6303;51.504;6.300;2022-10-17T14:41:24;6.95;;;4.28;;
12476;SDS011;6303;51.504;6.300;2022-10-17T14:43:55;6.97;;;4.00;;
12476;SDS011;6303;51.504;6.300;2022-10-17T14:46:25;5.03;;;4.53;;
12476;SDS011;6303;51.504;6.300;2022-10-17T14:48:54;7.63;;;4.00;;
12476;SDS011;6303;51.504;6.300;2022-10-17T14:51:24;4.60;;;3.80;;
12476;SDS011;6303;51.504;6.300;2022-10-17T14:53:58;7.20;;;4.45;;
12476;SDS011;6303;51.504;6.300;2022-10-17T14:56:40;5.18;;;4.30;;
12476;SDS011;6303;51.504;6.300;2022-10-17T14:59:09;5.05;;;4.50;;
12476;SDS011;6303;51.504;6.300;2022-10-17T15:01:37;7.53;;;4.20;;
12476;SDS011;6303;51.504;6.300;2022-10-17T15:04:04;5.95;;;4.40;;
12476;SDS011;6303;51.504;6.300;2022-10-17T15:06:34;6.40;;;4.43;;
12476;SDS011;6303;51.504;6.300;2022-10-17T15:09:02;7.68;;;4.90;;
12476;SDS011;6303;51.504;6.300;2022-10-17T15:11:29;7.55;;;5.35;;
12476;SDS011;6303;51.504;6.300;2022-10-17T15:13:56;7.28;;;4.55;;
12476;SDS011;6303;51.504;6.300;2022-10-17T15:16:25;5.07;;;4.57;;
12476;SDS011;6303;51.504;6.300;2022-10-17T15:18:56;6.32;;;4.53;;
12476;SDS011;6303;51.504;6.300;2022-10-17T15:21:23;6.53;;;5.03;;
12476;SDS011;6303;51.504;6.300;2022-10-17T15:23:51;5.13;;;4.60;;
12476;SDS011;6303;51.504;6.300;2022-10-17T15:26:19;6.85;;;4.85;;
12476;SDS011;6303;51.504;6.300;2022-10-17T15:28:47;6.03;;;4.32;;
12476;SDS011;6303;51.504;6.300;2022-10-17T15:31:15;6.97;;;4.68;;
12476;SDS011;6303;51.504;6.300;2022-10-17T15:33:45;6.63;;;4.95;;
12476;SDS011;6303;51.504;6.300;2022-10-17T15:36:15;6.35;;;5.43;;
12476;SDS011;6303;51.504;6.300;2022-10-17T15:38:45;6.90;;;5.28;;
12476;SDS011;6303;51.504;6.300;2022-10-17T15:41:13;9.27;;;5.10;;
12476;SDS011;6303;51.504;6.300;2022-10-17T15:43:40;5.07;;;4.57;;
12476;SDS011;6303;51.504;6.300;2022-10-17T15:46:11;6.75;;;5.05;;
12476;SDS011;6303;51.504;6.300;2022-10-17T15:48:39;7.30;;;5.25;;
12476;SDS011;6303;51.504;6.300;2022-10-17T15:51:08;6.05;;;5.45;;
12476;SDS011;6303;51.504;6.300;2022-10-17T15:53:35;7.10;;;5.43;;
12476;SDS011;6303;51.504;6.300;2022-10-17T15:56:03;5.35;;;4.85;;